Buoy 51940

sailwx.info

Track history (hours):
 
Tides and Currents Weather Stations Pressure Air Temp Water Temp Dewpoint Dewpoint Depression Visibility Wind Speed Wind Dir Waves Ship Positions

Drifting buoy 51940

Last reported at 2014-Jul-30 10:08 UTC. Time now 2014-Jul-30 13:17 UTC.
Position N 31°45' E 171°03'.

Water temperature 24.7 ° C

Date/timePositionNaut miles runAvg speedWind from/ knotsBaromVisibWave heightAir tempDewpointWater temp
2014-Jul-30 10:08N 31°45' E 171°03'0 0.5 24.7
2014-Jul-30 09:21N 31°45' E 171°04'2 2.7 24.7
2014-Jul-30 08:26N 31°47' E 171°05'3 0.5 24.7
2014-Jul-30 01:50N 31°50' E 171°05'0 9.5 24.5
2014-Jul-30 01:47N 31°50' E 171°05'1 0.3 24.5
2014-Jul-29 21:10N 31°51' E 171°04'1 0.2 24.3
2014-Jul-29 18:37N 31°51' E 171°04'0 0.0 24.2
2014-Jul-29 17:00N 31°51' E 171°04'1 7.3 24.3
2014-Jul-29 16:51N 31°50' E 171°05'3 0.5 24.3
2014-Jul-29 10:26N 31°52' E 171°08'0 0.0 24.6
2014-Jul-29 09:43N 31°52' E 171°08'1 0.9 24.6
2014-Jul-29 08:48N 31°52' E 171°09'128.8 24.6
2014-Jul-29 08:45N 31°53' E 171°10'2 0.5 24.6
2014-Jul-29 05:27N 31°55' E 171°10'2 0.6 24.9
2014-Jul-29 02:04N 31°57' E 171°09'2 0.4 24.8
2014-Jul-28 22:21N 31°58' E 171°08'1 0.8 23.8
2014-Jul-28 21:32N 31°59' E 171°09'1 0.4 23.7
2014-Jul-28 18:55N 31°60' E 171°09'1 0.8 23.5
2014-Jul-28 17:14N 32°01' E 171°10'0 6.4 23.5
2014-Jul-28 17:12N 32°01' E 171°10'1 5.5 23.5
2014-Jul-28 17:02N 32°02' E 171°10'2 0.2 23.5
2014-Jul-28 10:45N 32°03' E 171°11'0 0.4 23.5
2014-Jul-28 10:04N 32°03' E 171°11'0 0.0 23.5
2014-Jul-28 09:59N 32°03' E 171°11'0 0.6 23.5
2014-Jul-28 09:10N 32°04' E 171°11'1 6.5 23.5
2014-Jul-28 09:05N 32°03' E 171°11'3 0.9 23.5
2014-Jul-28 06:02N 32°06' E 171°13'4 1.9 23.7
2014-Jul-28 04:09N 32°09' E 171°14'0 0.0 23.7
2014-Jul-28 02:13N 32°09' E 171°14'3 2.0 23.6
2014-Jul-28 00:30N 32°12' E 171°12'0 0.0 23.5
2014-Jul-27 22:45N 32°12' E 171°12'1 0.8 23.3
2014-Jul-27 21:50N 32°12' E 171°11'1 0.3 23.2
2014-Jul-27 19:26N 32°12' E 171°10'0 0.6 23.1
2014-Jul-27 18:38N 32°13' E 171°10'0 0.0 23.1
2014-Jul-27 17:45N 32°13' E 171°10'0 0.9 23.1
2014-Jul-27 17:20N 32°12' E 171°10'0 3.2 23.1
2014-Jul-27 17:13N 32°13' E 171°10'0 0.0 23.1
2014-Jul-27 16:56N 32°13' E 171°10'0 0.2 23.1
2014-Jul-27 14:50N 32°13' E 171°10'331.2 23.1
2014-Jul-27 14:44N 32°16' E 171°11'0 0.0 23.1
2014-Jul-27 11:06N 32°16' E 171°11'0 0.0 23.1
2014-Jul-27 09:31N 32°16' E 171°11'2 1.3 23.1
2014-Jul-27 08:12N 32°18' E 171°10'0 0.0 23.2
2014-Jul-27 06:37N 32°18' E 171°10'1 2.3 23.2
2014-Jul-27 06:11N 32°18' E 171°09'1 0.6 23.2
2014-Jul-27 04:49N 32°19' E 171°08'1 3.4 23.2
2014-Jul-27 04:35N 32°18' E 171°09'123.6 23.2
2014-Jul-27 04:33N 32°19' E 171°08'0 0.0 23.2
2014-Jul-27 03:14N 32°19' E 171°08'1 5.8 23.3
2014-Jul-27 03:08N 32°19' E 171°08'0 0.0 23.3
2014-Jul-27 02:21N 32°19' E 171°08'2 1.4 23.3
2014-Jul-27 00:45N 32°20' E 171°05'0 0.0 23.3
2014-Jul-26 23:07N 32°20' E 171°05'322.2 23.3
2014-Jul-26 22:59N 32°20' E 171°02'2 3.3 23.3
2014-Jul-26 22:15N 32°20' E 171°05'2 0.6 23.3
2014-Jul-26 18:16N 32°20' E 171°02'0 0.5 23.3
2014-Jul-26 17:32N 32°19' E 171°02'0 0.0 23.3
2014-Jul-26 17:20N 32°19' E 171°02'0 0.0 23.3
2014-Jul-26 15:51N 32°19' E 171°02'0 0.5 23.4
2014-Jul-26 15:03N 32°19' E 171°01'0 3.2 23.4
2014-Jul-26 14:55N 32°19' E 171°01'0 0.0 23.4
2014-Jul-26 13:19N 32°19' E 171°01'0 0.0 23.6
2014-Jul-26 09:49N 32°19' E 171°01'2 2.7 24.2
2014-Jul-26 09:03N 32°21' E 171°00'0 0.1
2014-Jul-26 08:07N 32°21' E 171°00'0 0.0 24.5
2014-Jul-26 06:34N 32°21' E 171°00'0 0.0
2014-Jul-26 05:02N 32°21' E 171°00'1 0.5 25.0
2014-Jul-26 03:21N 32°22' E 170°60'0 0.2 24.8
2014-Jul-26 02:32N 32°22' E 171°00'1 0.8 24.7
2014-Jul-26 00:50N 32°23' E 171°00'2 0.5 24.1
2014-Jul-25 20:50N 32°25' E 170°60'0 0.0
2014-Jul-25 18:50N 32°25' E 170°60'1 1.0 23.2
2014-Jul-25 17:43N 32°26' E 170°59'0 0.0 23.2
2014-Jul-25 17:09N 32°26' E 170°59'0 0.3 23.2
2014-Jul-25 16:00N 32°26' E 170°59'0 0.0 23.1
2014-Jul-25 15:16N 32°26' E 170°59'3 1.4 23.1
2014-Jul-25 13:29N 32°28' E 171°00'0 0.0 23.1
2014-Jul-25 10:12N 32°28' E 171°00'1 1.0 23.0
2014-Jul-25 09:19N 32°29' E 171°01'0 0.0 22.9
2014-Jul-25 08:30N 32°29' E 171°01'235.7 22.9
2014-Jul-25 08:27N 32°31' E 170°60'0 0.0 22.9
2014-Jul-25 05:57N 32°31' E 170°60'1 1.0 22.8
2014-Jul-25 05:13N 32°31' E 171°00'0 0.0 22.8
2014-Jul-25 03:37N 32°31' E 171°00'0 6.1 22.8
2014-Jul-25 03:34N 32°32' E 171°00'0 0.0 22.8
2014-Jul-25 02:46N 32°32' E 171°00'3 1.6 22.9
2014-Jul-25 01:06N 32°34' E 171°01'1 0.3 22.8
2014-Jul-24 22:07N 32°35' E 171°00'1 1.2 22.5
2014-Jul-24 21:13N 32°36' E 170°60'1 0.7 22.5
2014-Jul-24 19:14N 32°38' E 170°60'0 0.1 22.5
2014-Jul-24 18:13N 32°38' E 170°60'1 0.5 22.5
2014-Jul-24 16:13N 32°39' E 170°59'1 1.4 22.4
2014-Jul-24 15:23N 32°40' E 170°60'2 0.3 22.4
2014-Jul-24 10:29N 32°41' E 171°00'0 0.5 22.5
2014-Jul-24 09:44N 32°42' E 171°00'1 0.9 22.5
2014-Jul-24 08:49N 32°42' E 171°01'272.8
2014-Jul-24 08:47N 32°45' E 171°01'1 0.4 22.5
2014-Jul-24 05:24N 32°46' E 171°02'0 0.0 22.5
2014-Jul-24 04:09N 32°46' E 171°02'1 2.3 22.4
2014-Jul-24 03:48N 32°46' E 171°02'0 4.7 22.4
2014-Jul-24 03:44N 32°46' E 171°02'1 1.6 22.4
2014-Jul-24 02:54N 32°48' E 171°02'1 0.7 22.4
2014-Jul-24 01:19N 32°49' E 171°02'3 0.7 22.4
2014-Jul-23 21:34N 32°51' E 171°04'2 0.6 22.3
2014-Jul-23 18:35N 32°52' E 171°06'2 4.0 22.2
2014-Jul-23 18:11N 32°51' E 171°05'219.0 22.2
2014-Jul-23 18:06N 32°52' E 171°06'0 0.0 22.2
2014-Jul-23 16:27N 32°52' E 171°06'217.5 22.2
2014-Jul-23 16:19N 32°54' E 171°08'0 0.0 22.2
2014-Jul-23 15:35N 32°54' E 171°08'0 0.0 22.3
2014-Jul-23 13:56N 32°54' E 171°08'2 0.8 22.3
2014-Jul-23 10:51N 32°56' E 171°10'1 1.3 22.3
2014-Jul-23 10:05N 32°57' E 171°10'0 0.0 22.3
2014-Jul-23 09:13N 32°57' E 171°10'0 4.9 22.3
2014-Jul-23 09:08N 32°57' E 171°11'1 0.7 22.3
2014-Jul-23 06:59N 32°58' E 171°10'0 0.3 22.3
2014-Jul-23 05:37N 32°58' E 171°10'0 0.2 22.3
2014-Jul-23 04:36N 32°58' E 171°11'0 0.0 22.3
2014-Jul-23 03:58N 32°58' E 171°11'114.1 22.3
2014-Jul-23 03:55N 32°58' E 171°11'0 0.1 22.3
2014-Jul-23 03:05N 32°58' E 171°11'0 0.0 22.3
2014-Jul-23 01:29N 32°58' E 171°11'0 0.0 22.2
2014-Jul-23 01:24N 32°58' E 171°11'3 1.0 22.2
2014-Jul-22 22:47N 32°59' E 171°14'2 0.4 22.1
2014-Jul-22 18:42N 33°00' E 171°15'0 0.0 22.1
2014-Jul-22 18:15N 33°00' E 171°15'1 0.8 22.1
2014-Jul-22 17:20N 33°01' E 171°16'0 1.0 22.0
2014-Jul-22 17:04N 33°01' E 171°16'0 0.0 22.0
2014-Jul-22 16:35N 33°01' E 171°16'2 2.0 22.0
2014-Jul-22 15:47N 33°03' E 171°16'0 0.0 22.0
2014-Jul-22 14:07N 33°03' E 171°16'3 0.7 22.0
2014-Jul-22 10:20N 33°05' E 171°17'0 0.0 22.1
2014-Jul-22 09:34N 33°05' E 171°17'2 0.7 22.1
2014-Jul-22 06:35N 33°06' E 171°15'0 0.4 22.2
2014-Jul-22 05:49N 33°06' E 171°15'0 0.3 22.2
2014-Jul-22 04:51N 33°06' E 171°15'0 0.0
2014-Jul-22 04:11N 33°06' E 171°15'0 0.5 22.2
2014-Jul-22 04:05N 33°06' E 171°15'1 0.4 22.2
2014-Jul-22 01:40N 33°06' E 171°16'0 3.2 22.2
2014-Jul-22 01:35N 33°06' E 171°16'5 1.9 22.2
2014-Jul-21 23:09N 33°09' E 171°21'2 0.4 22.2
2014-Jul-21 17:35N 33°11' E 171°20'0 0.0
2014-Jul-21 16:40N 33°11' E 171°20'0 0.0 22.2
2014-Jul-21 14:18N 33°11' E 171°20'3 0.6 22.3
2014-Jul-21 09:50N 33°13' E 171°19'1 1.2 22.3
2014-Jul-21 09:04N 33°14' E 171°18'1 0.3 22.3
2014-Jul-21 06:20N 33°14' E 171°17'2 0.9 22.2
2014-Jul-21 04:16N 33°16' E 171°17'0 0.0 22.1
2014-Jul-21 03:24N 33°16' E 171°17'0 0.0 22.1
2014-Jul-21 01:49N 33°16' E 171°17'230.4 22.2
2014-Jul-21 01:45N 33°18' E 171°17'3 0.7 22.2
2014-Jul-20 20:53N 33°21' E 171°16'0 0.0 22.3
2014-Jul-20 18:05N 33°21' E 171°16'3 1.6 22.3
2014-Jul-20 16:10N 33°24' E 171°15'4 2.3 22.3
2014-Jul-20 14:21N 33°28' E 171°12'0 0.0 22.3
2014-Jul-20 10:13N 33°28' E 171°12'   22.4
Track history (hours):
 
Tides and Currents Weather Stations Pressure Air Temp Water Temp Dewpoint Dewpoint Depression Visibility Wind Speed Wind Dir Waves Ship Positions

Drifting buoy 51940

Last reported at 2014-Jul-30 10:08 UTC. Time now 2014-Jul-30 13:17 UTC.
Position N 31°45' E 171°03'.

Water temperature 24.7 ° C

Date/timePositionNaut miles runAvg speedWind from/ knotsBaromVisibWave heightAir tempDewpointWater temp
2014-Jul-30 10:08N 31°45' E 171°03'0 0.5 24.7
2014-Jul-30 09:21N 31°45' E 171°04'2 2.7 24.7
2014-Jul-30 08:26N 31°47' E 171°05'3 0.5 24.7
2014-Jul-30 01:50N 31°50' E 171°05'0 9.5 24.5
2014-Jul-30 01:47N 31°50' E 171°05'1 0.3 24.5
2014-Jul-29 21:10N 31°51' E 171°04'1 0.2 24.3
2014-Jul-29 18:37N 31°51' E 171°04'0 0.0 24.2
2014-Jul-29 17:00N 31°51' E 171°04'1 7.3 24.3
2014-Jul-29 16:51N 31°50' E 171°05'3 0.5 24.3
2014-Jul-29 10:26N 31°52' E 171°08'0 0.0 24.6
2014-Jul-29 09:43N 31°52' E 171°08'1 0.9 24.6
2014-Jul-29 08:48N 31°52' E 171°09'128.8 24.6
2014-Jul-29 08:45N 31°53' E 171°10'2 0.5 24.6
2014-Jul-29 05:27N 31°55' E 171°10'2 0.6 24.9
2014-Jul-29 02:04N 31°57' E 171°09'2 0.4 24.8
2014-Jul-28 22:21N 31°58' E 171°08'1 0.8 23.8
2014-Jul-28 21:32N 31°59' E 171°09'1 0.4 23.7
2014-Jul-28 18:55N 31°60' E 171°09'1 0.8 23.5
2014-Jul-28 17:14N 32°01' E 171°10'0 6.4 23.5
2014-Jul-28 17:12N 32°01' E 171°10'1 5.5 23.5
2014-Jul-28 17:02N 32°02' E 171°10'2 0.2 23.5
2014-Jul-28 10:45N 32°03' E 171°11'0 0.4 23.5
2014-Jul-28 10:04N 32°03' E 171°11'0 0.0 23.5
2014-Jul-28 09:59N 32°03' E 171°11'0 0.6 23.5
2014-Jul-28 09:10N 32°04' E 171°11'1 6.5 23.5
2014-Jul-28 09:05N 32°03' E 171°11'3 0.9 23.5
2014-Jul-28 06:02N 32°06' E 171°13'4 1.9 23.7
2014-Jul-28 04:09N 32°09' E 171°14'0 0.0 23.7
2014-Jul-28 02:13N 32°09' E 171°14'3 2.0 23.6
2014-Jul-28 00:30N 32°12' E 171°12'0 0.0 23.5
2014-Jul-27 22:45N 32°12' E 171°12'1 0.8 23.3
2014-Jul-27 21:50N 32°12' E 171°11'1 0.3 23.2
2014-Jul-27 19:26N 32°12' E 171°10'0 0.6 23.1
2014-Jul-27 18:38N 32°13' E 171°10'0 0.0 23.1
2014-Jul-27 17:45N 32°13' E 171°10'0 0.9 23.1
2014-Jul-27 17:20N 32°12' E 171°10'0 3.2 23.1
2014-Jul-27 17:13N 32°13' E 171°10'0 0.0 23.1
2014-Jul-27 16:56N 32°13' E 171°10'0 0.2 23.1
2014-Jul-27 14:50N 32°13' E 171°10'331.2 23.1
2014-Jul-27 14:44N 32°16' E 171°11'0 0.0 23.1
2014-Jul-27 11:06N 32°16' E 171°11'0 0.0 23.1
2014-Jul-27 09:31N 32°16' E 171°11'2 1.3 23.1
2014-Jul-27 08:12N 32°18' E 171°10'0 0.0 23.2
2014-Jul-27 06:37N 32°18' E 171°10'1 2.3 23.2
2014-Jul-27 06:11N 32°18' E 171°09'1 0.6 23.2
2014-Jul-27 04:49N 32°19' E 171°08'1 3.4 23.2
2014-Jul-27 04:35N 32°18' E 171°09'123.6 23.2
2014-Jul-27 04:33N 32°19' E 171°08'0 0.0 23.2
2014-Jul-27 03:14N 32°19' E 171°08'1 5.8 23.3
2014-Jul-27 03:08N 32°19' E 171°08'0 0.0 23.3
2014-Jul-27 02:21N 32°19' E 171°08'2 1.4 23.3
2014-Jul-27 00:45N 32°20' E 171°05'0 0.0 23.3
2014-Jul-26 23:07N 32°20' E 171°05'322.2 23.3
2014-Jul-26 22:59N 32°20' E 171°02'2 3.3 23.3
2014-Jul-26 22:15N 32°20' E 171°05'2 0.6 23.3
2014-Jul-26 18:16N 32°20' E 171°02'0 0.5 23.3
2014-Jul-26 17:32N 32°19' E 171°02'0 0.0 23.3
2014-Jul-26 17:20N 32°19' E 171°02'0 0.0 23.3
2014-Jul-26 15:51N 32°19' E 171°02'0 0.5 23.4
2014-Jul-26 15:03N 32°19' E 171°01'0 3.2 23.4
2014-Jul-26 14:55N 32°19' E 171°01'0 0.0 23.4
2014-Jul-26 13:19N 32°19' E 171°01'0 0.0 23.6
2014-Jul-26 09:49N 32°19' E 171°01'2 2.7 24.2
2014-Jul-26 09:03N 32°21' E 171°00'0 0.1
2014-Jul-26 08:07N 32°21' E 171°00'0 0.0 24.5
2014-Jul-26 06:34N 32°21' E 171°00'0 0.0
2014-Jul-26 05:02N 32°21' E 171°00'1 0.5 25.0
2014-Jul-26 03:21N 32°22' E 170°60'0 0.2 24.8
2014-Jul-26 02:32N 32°22' E 171°00'1 0.8 24.7
2014-Jul-26 00:50N 32°23' E 171°00'2 0.5 24.1
2014-Jul-25 20:50N 32°25' E 170°60'0 0.0
2014-Jul-25 18:50N 32°25' E 170°60'1 1.0 23.2
2014-Jul-25 17:43N 32°26' E 170°59'0 0.0 23.2
2014-Jul-25 17:09N 32°26' E 170°59'0 0.3 23.2
2014-Jul-25 16:00N 32°26' E 170°59'0 0.0 23.1
2014-Jul-25 15:16N 32°26' E 170°59'3 1.4 23.1
2014-Jul-25 13:29N 32°28' E 171°00'0 0.0 23.1
2014-Jul-25 10:12N 32°28' E 171°00'1 1.0 23.0
2014-Jul-25 09:19N 32°29' E 171°01'0 0.0 22.9
2014-Jul-25 08:30N 32°29' E 171°01'235.7 22.9
2014-Jul-25 08:27N 32°31' E 170°60'0 0.0 22.9
2014-Jul-25 05:57N 32°31' E 170°60'1 1.0 22.8
2014-Jul-25 05:13N 32°31' E 171°00'0 0.0 22.8
2014-Jul-25 03:37N 32°31' E 171°00'0 6.1 22.8
2014-Jul-25 03:34N 32°32' E 171°00'0 0.0 22.8
2014-Jul-25 02:46N 32°32' E 171°00'3 1.6 22.9
2014-Jul-25 01:06N 32°34' E 171°01'1 0.3 22.8
2014-Jul-24 22:07N 32°35' E 171°00'1 1.2 22.5
2014-Jul-24 21:13N 32°36' E 170°60'1 0.7 22.5
2014-Jul-24 19:14N 32°38' E 170°60'0 0.1 22.5
2014-Jul-24 18:13N 32°38' E 170°60'1 0.5 22.5
2014-Jul-24 16:13N 32°39' E 170°59'1 1.4 22.4
2014-Jul-24 15:23N 32°40' E 170°60'2 0.3 22.4
2014-Jul-24 10:29N 32°41' E 171°00'0 0.5 22.5
2014-Jul-24 09:44N 32°42' E 171°00'1 0.9 22.5
2014-Jul-24 08:49N 32°42' E 171°01'272.8
2014-Jul-24 08:47N 32°45' E 171°01'1 0.4 22.5
2014-Jul-24 05:24N 32°46' E 171°02'0 0.0 22.5
2014-Jul-24 04:09N 32°46' E 171°02'1 2.3 22.4
2014-Jul-24 03:48N 32°46' E 171°02'0 4.7 22.4
2014-Jul-24 03:44N 32°46' E 171°02'1 1.6 22.4
2014-Jul-24 02:54N 32°48' E 171°02'1 0.7 22.4
2014-Jul-24 01:19N 32°49' E 171°02'3 0.7 22.4
2014-Jul-23 21:34N 32°51' E 171°04'2 0.6 22.3
2014-Jul-23 18:35N 32°52' E 171°06'2 4.0 22.2
2014-Jul-23 18:11N 32°51' E 171°05'219.0 22.2
2014-Jul-23 18:06N 32°52' E 171°06'0 0.0 22.2
2014-Jul-23 16:27N 32°52' E 171°06'217.5 22.2
2014-Jul-23 16:19N 32°54' E 171°08'0 0.0 22.2
2014-Jul-23 15:35N 32°54' E 171°08'0 0.0 22.3
2014-Jul-23 13:56N 32°54' E 171°08'2 0.8 22.3
2014-Jul-23 10:51N 32°56' E 171°10'1 1.3 22.3
2014-Jul-23 10:05N 32°57' E 171°10'0 0.0 22.3
2014-Jul-23 09:13N 32°57' E 171°10'0 4.9 22.3
2014-Jul-23 09:08N 32°57' E 171°11'1 0.7 22.3
2014-Jul-23 06:59N 32°58' E 171°10'0 0.3 22.3
2014-Jul-23 05:37N 32°58' E 171°10'0 0.2 22.3
2014-Jul-23 04:36N 32°58' E 171°11'0 0.0 22.3
2014-Jul-23 03:58N 32°58' E 171°11'114.1 22.3
2014-Jul-23 03:55N 32°58' E 171°11'0 0.1 22.3
2014-Jul-23 03:05N 32°58' E 171°11'0 0.0 22.3
2014-Jul-23 01:29N 32°58' E 171°11'0 0.0 22.2
2014-Jul-23 01:24N 32°58' E 171°11'3 1.0 22.2
2014-Jul-22 22:47N 32°59' E 171°14'2 0.4 22.1
2014-Jul-22 18:42N 33°00' E 171°15'0 0.0 22.1
2014-Jul-22 18:15N 33°00' E 171°15'1 0.8 22.1
2014-Jul-22 17:20N 33°01' E 171°16'0 1.0 22.0
2014-Jul-22 17:04N 33°01' E 171°16'0 0.0 22.0
2014-Jul-22 16:35N 33°01' E 171°16'2 2.0 22.0
2014-Jul-22 15:47N 33°03' E 171°16'0 0.0 22.0
2014-Jul-22 14:07N 33°03' E 171°16'3 0.7 22.0
2014-Jul-22 10:20N 33°05' E 171°17'0 0.0 22.1
2014-Jul-22 09:34N 33°05' E 171°17'2 0.7 22.1
2014-Jul-22 06:35N 33°06' E 171°15'0 0.4 22.2
2014-Jul-22 05:49N 33°06' E 171°15'0 0.3 22.2
2014-Jul-22 04:51N 33°06' E 171°15'0 0.0
2014-Jul-22 04:11N 33°06' E 171°15'0 0.5 22.2
2014-Jul-22 04:05N 33°06' E 171°15'1 0.4 22.2
2014-Jul-22 01:40N 33°06' E 171°16'0 3.2 22.2
2014-Jul-22 01:35N 33°06' E 171°16'5 1.9 22.2
2014-Jul-21 23:09N 33°09' E 171°21'2 0.4 22.2
2014-Jul-21 17:35N 33°11' E 171°20'0 0.0
2014-Jul-21 16:40N 33°11' E 171°20'0 0.0 22.2
2014-Jul-21 14:18N 33°11' E 171°20'3 0.6 22.3
2014-Jul-21 09:50N 33°13' E 171°19'1 1.2 22.3
2014-Jul-21 09:04N 33°14' E 171°18'1 0.3 22.3
2014-Jul-21 06:20N 33°14' E 171°17'2 0.9 22.2
2014-Jul-21 04:16N 33°16' E 171°17'0 0.0 22.1
2014-Jul-21 03:24N 33°16' E 171°17'0 0.0 22.1
2014-Jul-21 01:49N 33°16' E 171°17'230.4 22.2
2014-Jul-21 01:45N 33°18' E 171°17'3 0.7 22.2
2014-Jul-20 20:53N 33°21' E 171°16'0 0.0 22.3
2014-Jul-20 18:05N 33°21' E 171°16'3 1.6 22.3
2014-Jul-20 16:10N 33°24' E 171°15'4 2.3 22.3
2014-Jul-20 14:21N 33°28' E 171°12'0 0.0 22.3
2014-Jul-20 10:13N 33°28' E 171°12'   22.4

Dump ship's entire track history